Morgantown, WV

2:50 AM EDT on September 23, 2014 (GMT -0400)
Top of South Park | Change Station
CLOSE
Current Station
Personal Weather Station
Location: Morgantown, WV
Elevation: 1245 ft
Nearby Weather Stations

Elev 1245 ft 39.62 °N, 79.96 °W | Updated 9 minutes ago

Mostly Cloudy
Mostly Cloudy
46.9 °F
Feels Like 47 °F
N
0.0
Wind Variable Wind from NW
Gusts 0.0 mph

Today
High -- | Low -- °F
--% Chance of Precip.
Yesterday
High -- | Low -- °F
Precip. -- in
7:08 AM 7:15 PM
Waning Crescent, 1% visible
Pressure 30.30 in
Visibility 0.5 miles
Clouds
Windchill 47 °F
Dew Point 42 °F
Humidity 82%
Rainfall 0.00 in
Snow Depth Not available.
UV Not available.
Pollen 3.30 out of 12
Air Quality Not available.
Flu Activity Not available.
SPECI KMGW 230625Z AUTO 00000KT 1/2SM FG VV001 08/06 A3030 RMK AO2 T00830061 TSNO

More Conditions Fewer Conditions

Pressure 30.30 in
Visibility 0.5 miles
Clouds
Windchill 47 °F
Dew Point 42 °F
Humidity 82%
Rainfall 0.00 in
Snow Depth Not available.
UV Not available.
Pollen 3.30 out of 12
Air Quality Not available.
Flu Activity Not available.
SPECI KMGW 230625Z AUTO 00000KT 1/2SM FG VV001 08/06 A3030 RMK AO2 T00830061 TSNO

More Conditions Fewer Conditions

10-Day Weather Forecast

Almanac

Astronomy

Sep. 23, 2014 Rise Set
Actual Time 7:08 AM EDT 7:15 PM EDT
Civil Twilight 6:42 AM EDT 7:42 PM EDT
Nautical Twilight 6:10 AM EDT 8:14 PM EDT
Astronomical Twilight 5:38 AM EDT 8:45 PM EDT
Moon 6:31 AM EDT 6:53 PM EDT
Length of Visible Light 13h 00m
Length of Day
12h 06m
Tomorrow will be 2m 35s shorter.
Waning Crescent, 1% of the Moon is Illuminated
Today
Waning Crescent
Sep 24
New
Oct 1
First Quarter
Oct 8
Full
Oct 15
Last Quarter

Today's Extremes

State Highs State Lows

Community

WunderPhotos

Upload Photos

1,755,608 photos uploaded!

Nearby

Snow Depth

Station Depth Elevation
No new snow has been reported.

Earthquake Activity

City Distance Mag. Time & Date
No recent earthquake activity has been reported nearby.
Minimum magnitude displayed is 2.5.

Coastal Water Temperatures

Place Temperature
No Stations Reporting

Nearby Weather Stations